NCAR-RAP Real-Time Weather Data

Output produced by METARs form (12 August 2020  18:20 UTC)
found at http://weather.rap.ucar.edu/surface/
 
KSPI 121752Z 10007KT 050V130 10SM CLR 28/19 A3008 RMK AO2 SLP180 T02830194 10283 20200 58002
KSPI 121652Z 06007KT 10SM CLR 28/19 A3008 RMK AO2 SLP181 T02780194
KSPI 121552Z 11007KT 10SM CLR 26/19 A3008 RMK AO2 SLP182 T02610194
KSPI 121452Z 10006KT 10SM CLR 26/19 A3008 RMK AO2 SLP182 T02560194 58000
KSPI 121352Z 08007KT 10SM CLR 24/19 A3008 RMK AO2 SLP181 T02390194
KSPI 121252Z 08007KT 9SM CLR 21/19 A3009 RMK AO2 SLP184 T02110194
KSPI 121152Z AUTO 04003KT 7SM CLR 20/18 A3008 RMK AO2 SLP182 T02000183 10211 20189 53011 TSNO
KSPI 121052Z AUTO 06004KT 10SM CLR 19/18 A3007 RMK AO2 SLP176 T01890178 TSNO
KSPI 120952Z AUTO 00000KT 10SM CLR 19/18 A3006 RMK AO2 SLP174 T01940178 TSNO
KSPI 120852Z AUTO 00000KT 10SM CLR 20/18 A3005 RMK AO2 SLP171 T02000183 53007
KSPI 120752Z AUTO 00000KT 10SM CLR 21/18 A3003 RMK AO2 SLP166 T02060183
KSPI 120652Z AUTO 00000KT 10SM CLR 21/18 A3003 RMK AO2 SLP163 T02110183
KSPI 120552Z AUTO 00000KT 10SM FEW027 21/18 A3003 RMK AO2 SLP164 T02060183 10250 20206 402890172 53002
KSPI 120452Z AUTO 00000KT 10SM CLR 22/19 A3002 RMK AO2 SLP162 T02170194
KSPI 120352Z AUTO 06003KT 10SM CLR 22/20 A3003 RMK AO2 SLP163 T02220200
KSPI 120252Z AUTO 00000KT 10SM CLR 22/20 A3002 RMK AO2 SLP163 T02220200 53009
KSPI 120152Z AUTO 00000KT 10SM CLR 23/21 A3001 RMK AO2 SLP159 T02280206
KSPI 120052Z AUTO 00000KT 10SM CLR 23/20 A3000 RMK AO2 SLP155 T02330200
KSPI 112352Z AUTO 36004KT 10SM CLR 25/21 A3000 RMK AO2 SLP154 T02500206 10289 20250 58003
KSPI 112252Z 01005KT 10SM SCT032 27/21 A3001 RMK AO2 SLP158 T02670211
KSPI 112152Z AUTO 32003KT 10SM BKN030 28/21 A3000 RMK AO2 SLP156 T02780206